sensor_id;sensor_type;location;lat;lon;timestamp;P1;durP1;ratioP1;P2;durP2;ratioP2
75912;SDS011;64592;52.168;21.040;2023-05-08T00:01:46;12.93;;;7.85;;
75912;SDS011;64592;52.168;21.040;2023-05-08T00:06:48;15.35;;;9.02;;
75912;SDS011;64592;52.168;21.040;2023-05-08T00:11:52;16.45;;;9.35;;
75912;SDS011;64592;52.168;21.040;2023-05-08T00:16:53;16.08;;;9.38;;
75912;SDS011;64592;52.168;21.040;2023-05-08T00:21:55;14.52;;;8.48;;
75912;SDS011;64592;52.168;21.040;2023-05-08T00:26:59;10.60;;;7.65;;
75912;SDS011;64592;52.168;21.040;2023-05-08T00:32:02;15.20;;;9.00;;
75912;SDS011;64592;52.168;21.040;2023-05-08T00:37:04;14.10;;;8.65;;
75912;SDS011;64592;52.168;21.040;2023-05-08T00:42:07;12.45;;;8.13;;
75912;SDS011;64592;52.168;21.040;2023-05-08T00:47:09;12.77;;;8.05;;
75912;SDS011;64592;52.168;21.040;2023-05-08T00:52:13;18.27;;;9.07;;
75912;SDS011;64592;52.168;21.040;2023-05-08T00:57:16;12.70;;;7.90;;
75912;SDS011;64592;52.168;21.040;2023-05-08T01:02:19;11.65;;;7.68;;
75912;SDS011;64592;52.168;21.040;2023-05-08T01:07:21;12.57;;;7.82;;
75912;SDS011;64592;52.168;21.040;2023-05-08T01:12:28;15.05;;;8.70;;
75912;SDS011;64592;52.168;21.040;2023-05-08T01:17:52;12.35;;;7.57;;
75912;SDS011;64592;52.168;21.040;2023-05-08T01:23:15;13.15;;;8.90;;
75912;SDS011;64592;52.168;21.040;2023-05-08T01:28:35;14.38;;;8.48;;
75912;SDS011;64592;52.168;21.040;2023-05-08T01:33:52;11.57;;;7.85;;
75912;SDS011;64592;52.168;21.040;2023-05-08T01:39:01;13.52;;;8.88;;
75912;SDS011;64592;52.168;21.040;2023-05-08T01:44:12;12.18;;;8.93;;
75912;SDS011;64592;52.168;21.040;2023-05-08T01:49:25;14.38;;;9.35;;
75912;SDS011;64592;52.168;21.040;2023-05-08T01:54:33;12.25;;;8.48;;
75912;SDS011;64592;52.168;21.040;2023-05-08T01:59:40;16.92;;;8.63;;
75912;SDS011;64592;52.168;21.040;2023-05-08T02:04:44;11.98;;;8.35;;
75912;SDS011;64592;52.168;21.040;2023-05-08T02:09:47;15.48;;;8.30;;
75912;SDS011;64592;52.168;21.040;2023-05-08T02:14:51;16.77;;;9.32;;
75912;SDS011;64592;52.168;21.040;2023-05-08T02:20:00;14.10;;;8.18;;
75912;SDS011;64592;52.168;21.040;2023-05-08T02:25:04;14.43;;;9.27;;
75912;SDS011;64592;52.168;21.040;2023-05-08T02:30:07;12.32;;;7.70;;
75912;SDS011;64592;52.168;21.040;2023-05-08T02:35:15;15.50;;;9.95;;
75912;SDS011;64592;52.168;21.040;2023-05-08T02:40:20;11.10;;;7.90;;
75912;SDS011;64592;52.168;21.040;2023-05-08T02:45:25;12.80;;;7.97;;
75912;SDS011;64592;52.168;21.040;2023-05-08T02:50:34;17.33;;;8.70;;
75912;SDS011;64592;52.168;21.040;2023-05-08T02:55:47;16.13;;;8.63;;
75912;SDS011;64592;52.168;21.040;2023-05-08T03:05:59;13.63;;;7.35;;
75912;SDS011;64592;52.168;21.040;2023-05-08T03:11:05;13.40;;;7.50;;
75912;SDS011;64592;52.168;21.040;2023-05-08T03:16:13;13.43;;;8.75;;
75912;SDS011;64592;52.168;21.040;2023-05-08T03:21:23;12.90;;;8.02;;
75912;SDS011;64592;52.168;21.040;2023-05-08T03:26:28;11.77;;;7.28;;
75912;SDS011;64592;52.168;21.040;2023-05-08T03:31:30;13.98;;;9.25;;
75912;SDS011;64592;52.168;21.040;2023-05-08T03:36:36;13.20;;;7.60;;
75912;SDS011;64592;52.168;21.040;2023-05-08T03:41:40;16.67;;;7.43;;
75912;SDS011;64592;52.168;21.040;2023-05-08T03:46:42;15.32;;;8.68;;
75912;SDS011;64592;52.168;21.040;2023-05-08T03:51:47;12.02;;;8.00;;
75912;SDS011;64592;52.168;21.040;2023-05-08T03:56:50;12.68;;;7.95;;
75912;SDS011;64592;52.168;21.040;2023-05-08T04:01:53;15.73;;;8.38;;
75912;SDS011;64592;52.168;21.040;2023-05-08T04:07:02;12.82;;;7.53;;
75912;SDS011;64592;52.168;21.040;2023-05-08T04:12:09;12.50;;;8.13;;
75912;SDS011;64592;52.168;21.040;2023-05-08T04:17:18;13.25;;;8.15;;
75912;SDS011;64592;52.168;21.040;2023-05-08T04:22:30;14.98;;;9.38;;
75912;SDS011;64592;52.168;21.040;2023-05-08T04:27:34;14.20;;;8.85;;
75912;SDS011;64592;52.168;21.040;2023-05-08T04:32:37;15.65;;;9.25;;
75912;SDS011;64592;52.168;21.040;2023-05-08T04:37:41;14.18;;;8.43;;
75912;SDS011;64592;52.168;21.040;2023-05-08T04:42:43;14.63;;;7.93;;
75912;SDS011;64592;52.168;21.040;2023-05-08T04:47:46;14.05;;;9.02;;
75912;SDS011;64592;52.168;21.040;2023-05-08T04:52:49;14.75;;;8.88;;
75912;SDS011;64592;52.168;21.040;2023-05-08T04:57:51;12.65;;;8.25;;
75912;SDS011;64592;52.168;21.040;2023-05-08T05:02:53;11.95;;;6.68;;
75912;SDS011;64592;52.168;21.040;2023-05-08T05:07:58;10.35;;;6.40;;
75912;SDS011;64592;52.168;21.040;2023-05-08T05:12:59;8.50;;;5.70;;
75912;SDS011;64592;52.168;21.040;2023-05-08T05:18:03;9.68;;;5.57;;
75912;SDS011;64592;52.168;21.040;2023-05-08T05:23:06;9.73;;;5.20;;
75912;SDS011;64592;52.168;21.040;2023-05-08T05:28:08;7.45;;;4.97;;
75912;SDS011;64592;52.168;21.040;2023-05-08T05:33:09;7.65;;;5.15;;
75912;SDS011;64592;52.168;21.040;2023-05-08T05:38:13;7.85;;;5.45;;
75912;SDS011;64592;52.168;21.040;2023-05-08T05:43:15;7.30;;;5.18;;
75912;SDS011;64592;52.168;21.040;2023-05-08T05:48:23;7.35;;;4.45;;
75912;SDS011;64592;52.168;21.040;2023-05-08T05:53:26;7.03;;;4.57;;
75912;SDS011;64592;52.168;21.040;2023-05-08T05:58:31;6.85;;;4.47;;
75912;SDS011;64592;52.168;21.040;2023-05-08T06:03:33;6.03;;;4.10;;
75912;SDS011;64592;52.168;21.040;2023-05-08T06:08:36;7.30;;;4.30;;
75912;SDS011;64592;52.168;21.040;2023-05-08T06:13:38;7.32;;;4.07;;
75912;SDS011;64592;52.168;21.040;2023-05-08T06:18:43;8.80;;;4.95;;
75912;SDS011;64592;52.168;21.040;2023-05-08T06:23:46;10.27;;;5.20;;
75912;SDS011;64592;52.168;21.040;2023-05-08T06:28:48;8.25;;;4.43;;
75912;SDS011;64592;52.168;21.040;2023-05-08T06:33:49;5.18;;;3.83;;
75912;SDS011;64592;52.168;21.040;2023-05-08T06:38:56;4.30;;;3.33;;
75912;SDS011;64592;52.168;21.040;2023-05-08T06:43:58;6.45;;;2.55;;
75912;SDS011;64592;52.168;21.040;2023-05-08T06:48:59;6.93;;;2.97;;
75912;SDS011;64592;52.168;21.040;2023-05-08T06:54:02;5.15;;;4.07;;
75912;SDS011;64592;52.168;21.040;2023-05-08T06:59:07;5.75;;;2.63;;
75912;SDS011;64592;52.168;21.040;2023-05-08T07:04:11;6.55;;;2.95;;
75912;SDS011;64592;52.168;21.040;2023-05-08T07:09:14;6.43;;;2.78;;
75912;SDS011;64592;52.168;21.040;2023-05-08T07:14:16;6.20;;;2.80;;
75912;SDS011;64592;52.168;21.040;2023-05-08T07:19:18;4.07;;;2.45;;
75912;SDS011;64592;52.168;21.040;2023-05-08T07:24:21;4.70;;;2.38;;
75912;SDS011;64592;52.168;21.040;2023-05-08T07:29:24;4.25;;;2.38;;
75912;SDS011;64592;52.168;21.040;2023-05-08T07:34:25;3.47;;;2.40;;
75912;SDS011;64592;52.168;21.040;2023-05-08T07:39:29;4.90;;;2.80;;
75912;SDS011;64592;52.168;21.040;2023-05-08T07:44:31;3.40;;;2.53;;
75912;SDS011;64592;52.168;21.040;2023-05-08T07:49:33;4.30;;;2.53;;
75912;SDS011;64592;52.168;21.040;2023-05-08T07:54:41;5.57;;;2.97;;
75912;SDS011;64592;52.168;21.040;2023-05-08T07:59:43;6.28;;;3.03;;
75912;SDS011;64592;52.168;21.040;2023-05-08T08:04:45;6.63;;;2.75;;
75912;SDS011;64592;52.168;21.040;2023-05-08T08:09:50;3.85;;;2.45;;
75912;SDS011;64592;52.168;21.040;2023-05-08T08:14:53;6.35;;;3.15;;
75912;SDS011;64592;52.168;21.040;2023-05-08T08:19:57;6.72;;;3.03;;
75912;SDS011;64592;52.168;21.040;2023-05-08T08:25:00;5.07;;;3.10;;
75912;SDS011;64592;52.168;21.040;2023-05-08T08:30:02;4.55;;;2.75;;
75912;SDS011;64592;52.168;21.040;2023-05-08T08:35:04;4.78;;;3.10;;
75912;SDS011;64592;52.168;21.040;2023-05-08T08:40:11;4.68;;;2.90;;
75912;SDS011;64592;52.168;21.040;2023-05-08T08:45:13;4.28;;;2.85;;
75912;SDS011;64592;52.168;21.040;2023-05-08T08:50:15;4.90;;;3.08;;
75912;SDS011;64592;52.168;21.040;2023-05-08T08:55:22;4.45;;;2.90;;
75912;SDS011;64592;52.168;21.040;2023-05-08T09:00:27;5.15;;;2.80;;
75912;SDS011;64592;52.168;21.040;2023-05-08T09:05:34;4.60;;;2.83;;
75912;SDS011;64592;52.168;21.040;2023-05-08T09:10:39;3.85;;;2.60;;
75912;SDS011;64592;52.168;21.040;2023-05-08T09:15:41;4.20;;;2.72;;
75912;SDS011;64592;52.168;21.040;2023-05-08T09:20:45;4.82;;;3.00;;
75912;SDS011;64592;52.168;21.040;2023-05-08T09:25:51;3.67;;;2.70;;
75912;SDS011;64592;52.168;21.040;2023-05-08T09:30:53;4.15;;;2.78;;
75912;SDS011;64592;52.168;21.040;2023-05-08T09:35:56;4.88;;;2.60;;
75912;SDS011;64592;52.168;21.040;2023-05-08T09:41:07;3.20;;;2.67;;
75912;SDS011;64592;52.168;21.040;2023-05-08T09:46:19;4.35;;;2.80;;
75912;SDS011;64592;52.168;21.040;2023-05-08T09:51:27;2.88;;;2.00;;
75912;SDS011;64592;52.168;21.040;2023-05-08T09:56:34;3.13;;;2.35;;
75912;SDS011;64592;52.168;21.040;2023-05-08T10:01:37;3.38;;;2.33;;
75912;SDS011;64592;52.168;21.040;2023-05-08T10:06:40;3.53;;;2.40;;
75912;SDS011;64592;52.168;21.040;2023-05-08T10:11:48;3.95;;;2.45;;
75912;SDS011;64592;52.168;21.040;2023-05-08T10:16:52;3.60;;;2.55;;
75912;SDS011;64592;52.168;21.040;2023-05-08T10:21:55;3.83;;;2.58;;
75912;SDS011;64592;52.168;21.040;2023-05-08T10:27:04;6.00;;;2.72;;
75912;SDS011;64592;52.168;21.040;2023-05-08T10:32:12;4.03;;;3.28;;
75912;SDS011;64592;52.168;21.040;2023-05-08T10:37:19;4.72;;;2.67;;
75912;SDS011;64592;52.168;21.040;2023-05-08T10:42:22;5.47;;;2.60;;
75912;SDS011;64592;52.168;21.040;2023-05-08T10:47:26;3.67;;;2.47;;
75912;SDS011;64592;52.168;21.040;2023-05-08T10:52:34;5.20;;;2.50;;
75912;SDS011;64592;52.168;21.040;2023-05-08T11:03:18;10.45;;;2.28;;
75912;SDS011;64592;52.168;21.040;2023-05-08T11:08:22;5.15;;;2.88;;
75912;SDS011;64592;52.168;21.040;2023-05-08T11:13:27;5.68;;;2.35;;
75912;SDS011;64592;52.168;21.040;2023-05-08T11:18:33;3.92;;;3.22;;
75912;SDS011;64592;52.168;21.040;2023-05-08T11:23:35;4.15;;;2.80;;
75912;SDS011;64592;52.168;21.040;2023-05-08T11:28:54;4.55;;;2.58;;
75912;SDS011;64592;52.168;21.040;2023-05-08T11:33:57;5.20;;;3.15;;
75912;SDS011;64592;52.168;21.040;2023-05-08T11:39:05;5.00;;;2.47;;
75912;SDS011;64592;52.168;21.040;2023-05-08T11:44:16;3.10;;;2.10;;
75912;SDS011;64592;52.168;21.040;2023-05-08T11:49:19;5.13;;;2.35;;
75912;SDS011;64592;52.168;21.040;2023-05-08T11:54:23;4.00;;;2.38;;
75912;SDS011;64592;52.168;21.040;2023-05-08T11:59:33;4.93;;;2.42;;
75912;SDS011;64592;52.168;21.040;2023-05-08T12:04:43;4.25;;;2.80;;
75912;SDS011;64592;52.168;21.040;2023-05-08T12:14:54;2.97;;;2.15;;
75912;SDS011;64592;52.168;21.040;2023-05-08T12:19:57;5.82;;;2.30;;
75912;SDS011;64592;52.168;21.040;2023-05-08T12:25:12;5.25;;;2.50;;
75912;SDS011;64592;52.168;21.040;2023-05-08T12:30:17;3.50;;;2.20;;
75912;SDS011;64592;52.168;21.040;2023-05-08T12:35:18;5.50;;;2.60;;
75912;SDS011;64592;52.168;21.040;2023-05-08T12:40:24;3.90;;;2.72;;
75912;SDS011;64592;52.168;21.040;2023-05-08T12:45:31;4.25;;;2.17;;
75912;SDS011;64592;52.168;21.040;2023-05-08T12:50:35;5.30;;;2.40;;
75912;SDS011;64592;52.168;21.040;2023-05-08T12:55:38;3.72;;;2.60;;
75912;SDS011;64592;52.168;21.040;2023-05-08T13:00:44;4.47;;;2.50;;
75912;SDS011;64592;52.168;21.040;2023-05-08T13:05:47;5.00;;;2.60;;
75912;SDS011;64592;52.168;21.040;2023-05-08T13:10:50;4.07;;;2.22;;
75912;SDS011;64592;52.168;21.040;2023-05-08T13:15:55;5.10;;;2.33;;
75912;SDS011;64592;52.168;21.040;2023-05-08T13:20:59;4.10;;;2.20;;
75912;SDS011;64592;52.168;21.040;2023-05-08T13:26:02;3.92;;;2.85;;
75912;SDS011;64592;52.168;21.040;2023-05-08T13:31:07;4.25;;;2.55;;
75912;SDS011;64592;52.168;21.040;2023-05-08T13:36:09;3.65;;;2.38;;
75912;SDS011;64592;52.168;21.040;2023-05-08T13:41:12;3.78;;;2.10;;
75912;SDS011;64592;52.168;21.040;2023-05-08T13:46:15;3.05;;;1.95;;
75912;SDS011;64592;52.168;21.040;2023-05-08T13:51:16;3.47;;;2.45;;
75912;SDS011;64592;52.168;21.040;2023-05-08T13:56:19;3.45;;;2.42;;
75912;SDS011;64592;52.168;21.040;2023-05-08T14:01:22;3.65;;;2.25;;
75912;SDS011;64592;52.168;21.040;2023-05-08T14:06:24;4.50;;;2.50;;
75912;SDS011;64592;52.168;21.040;2023-05-08T14:11:28;4.15;;;2.55;;
75912;SDS011;64592;52.168;21.040;2023-05-08T14:16:31;5.00;;;2.15;;
75912;SDS011;64592;52.168;21.040;2023-05-08T14:21:33;4.00;;;2.30;;
75912;SDS011;64592;52.168;21.040;2023-05-08T14:26:36;3.60;;;2.20;;
75912;SDS011;64592;52.168;21.040;2023-05-08T14:31:40;3.85;;;2.55;;
75912;SDS011;64592;52.168;21.040;2023-05-08T14:36:42;5.95;;;2.42;;
75912;SDS011;64592;52.168;21.040;2023-05-08T14:41:44;3.92;;;2.40;;
75912;SDS011;64592;52.168;21.040;2023-05-08T14:46:47;3.95;;;2.22;;
75912;SDS011;64592;52.168;21.040;2023-05-08T14:51:49;3.47;;;2.30;;
75912;SDS011;64592;52.168;21.040;2023-05-08T14:56:51;5.18;;;2.60;;
75912;SDS011;64592;52.168;21.040;2023-05-08T15:01:54;4.22;;;2.28;;
75912;SDS011;64592;52.168;21.040;2023-05-08T15:06:56;4.53;;;2.90;;
75912;SDS011;64592;52.168;21.040;2023-05-08T15:11:58;3.97;;;2.35;;
75912;SDS011;64592;52.168;21.040;2023-05-08T15:17:03;4.57;;;2.85;;
75912;SDS011;64592;52.168;21.040;2023-05-08T15:22:07;10.05;;;3.10;;
75912;SDS011;64592;52.168;21.040;2023-05-08T15:27:09;3.92;;;2.40;;
75912;SDS011;64592;52.168;21.040;2023-05-08T15:32:12;4.63;;;2.55;;
75912;SDS011;64592;52.168;21.040;2023-05-08T15:37:19;3.55;;;2.53;;
75912;SDS011;64592;52.168;21.040;2023-05-08T15:42:21;3.88;;;2.53;;
75912;SDS011;64592;52.168;21.040;2023-05-08T15:47:26;3.17;;;2.50;;
75912;SDS011;64592;52.168;21.040;2023-05-08T15:52:28;4.82;;;2.60;;
75912;SDS011;64592;52.168;21.040;2023-05-08T15:57:30;5.28;;;2.60;;
75912;SDS011;64592;52.168;21.040;2023-05-08T16:02:33;4.22;;;3.03;;
75912;SDS011;64592;52.168;21.040;2023-05-08T16:07:35;4.82;;;3.15;;
75912;SDS011;64592;52.168;21.040;2023-05-08T16:12:36;3.88;;;2.78;;
75912;SDS011;64592;52.168;21.040;2023-05-08T16:17:41;4.13;;;2.80;;
75912;SDS011;64592;52.168;21.040;2023-05-08T16:22:43;4.60;;;2.92;;
75912;SDS011;64592;52.168;21.040;2023-05-08T16:27:45;3.40;;;2.60;;
75912;SDS011;64592;52.168;21.040;2023-05-08T16:32:48;4.28;;;2.63;;
75912;SDS011;64592;52.168;21.040;2023-05-08T16:37:50;4.00;;;2.63;;
75912;SDS011;64592;52.168;21.040;2023-05-08T16:42:52;3.47;;;2.40;;
75912;SDS011;64592;52.168;21.040;2023-05-08T16:47:58;3.70;;;2.60;;
75912;SDS011;64592;52.168;21.040;2023-05-08T16:53:00;3.80;;;2.47;;
75912;SDS011;64592;52.168;21.040;2023-05-08T16:58:05;3.47;;;2.60;;
75912;SDS011;64592;52.168;21.040;2023-05-08T17:03:08;4.05;;;2.70;;
75912;SDS011;64592;52.168;21.040;2023-05-08T17:08:10;4.47;;;2.40;;
75912;SDS011;64592;52.168;21.040;2023-05-08T17:13:13;5.30;;;2.53;;
75912;SDS011;64592;52.168;21.040;2023-05-08T17:18:16;3.55;;;2.33;;
75912;SDS011;64592;52.168;21.040;2023-05-08T17:23:19;4.25;;;2.80;;
75912;SDS011;64592;52.168;21.040;2023-05-08T17:28:24;3.63;;;2.30;;
75912;SDS011;64592;52.168;21.040;2023-05-08T17:33:28;3.63;;;2.25;;
75912;SDS011;64592;52.168;21.040;2023-05-08T17:38:32;6.00;;;2.75;;
75912;SDS011;64592;52.168;21.040;2023-05-08T17:43:38;4.88;;;2.83;;
75912;SDS011;64592;52.168;21.040;2023-05-08T17:48:41;4.50;;;3.33;;
75912;SDS011;64592;52.168;21.040;2023-05-08T17:53:43;4.38;;;2.58;;
75912;SDS011;64592;52.168;21.040;2023-05-08T17:58:45;4.22;;;2.70;;
75912;SDS011;64592;52.168;21.040;2023-05-08T18:03:51;4.50;;;3.25;;
75912;SDS011;64592;52.168;21.040;2023-05-08T18:08:52;4.03;;;2.60;;
75912;SDS011;64592;52.168;21.040;2023-05-08T18:13:54;4.15;;;2.67;;
75912;SDS011;64592;52.168;21.040;2023-05-08T18:18:58;4.35;;;3.08;;
75912;SDS011;64592;52.168;21.040;2023-05-08T18:24:00;4.85;;;2.97;;
75912;SDS011;64592;52.168;21.040;2023-05-08T18:29:02;6.50;;;3.20;;
75912;SDS011;64592;52.168;21.040;2023-05-08T18:34:11;4.15;;;3.17;;
75912;SDS011;64592;52.168;21.040;2023-05-08T18:39:12;7.82;;;3.28;;
75912;SDS011;64592;52.168;21.040;2023-05-08T18:44:14;5.55;;;3.80;;
75912;SDS011;64592;52.168;21.040;2023-05-08T18:49:17;5.00;;;3.35;;
75912;SDS011;64592;52.168;21.040;2023-05-08T18:54:19;4.97;;;3.30;;
75912;SDS011;64592;52.168;21.040;2023-05-08T18:59:26;7.45;;;3.63;;
75912;SDS011;64592;52.168;21.040;2023-05-08T19:04:29;5.18;;;3.40;;
75912;SDS011;64592;52.168;21.040;2023-05-08T19:09:31;6.45;;;3.83;;
75912;SDS011;64592;52.168;21.040;2023-05-08T19:14:33;8.45;;;4.00;;
75912;SDS011;64592;52.168;21.040;2023-05-08T19:19:36;7.82;;;3.70;;
75912;SDS011;64592;52.168;21.040;2023-05-08T19:24:38;5.47;;;3.45;;
75912;SDS011;64592;52.168;21.040;2023-05-08T19:29:40;8.13;;;3.83;;
75912;SDS011;64592;52.168;21.040;2023-05-08T19:34:44;5.65;;;3.78;;
75912;SDS011;64592;52.168;21.040;2023-05-08T19:39:46;5.55;;;4.15;;
75912;SDS011;64592;52.168;21.040;2023-05-08T19:44:48;4.97;;;3.50;;
75912;SDS011;64592;52.168;21.040;2023-05-08T19:49:55;8.52;;;4.47;;
75912;SDS011;64592;52.168;21.040;2023-05-08T19:54:58;7.00;;;3.47;;
75912;SDS011;64592;52.168;21.040;2023-05-08T19:59:59;5.72;;;3.90;;
75912;SDS011;64592;52.168;21.040;2023-05-08T20:05:03;5.95;;;4.15;;
75912;SDS011;64592;52.168;21.040;2023-05-08T20:10:06;5.18;;;3.72;;
75912;SDS011;64592;52.168;21.040;2023-05-08T20:15:09;7.35;;;4.38;;
75912;SDS011;64592;52.168;21.040;2023-05-08T20:20:12;7.93;;;4.03;;
75912;SDS011;64592;52.168;21.040;2023-05-08T20:25:17;7.40;;;4.40;;
75912;SDS011;64592;52.168;21.040;2023-05-08T20:30:20;7.93;;;4.22;;
75912;SDS011;64592;52.168;21.040;2023-05-08T20:35:23;7.22;;;4.30;;
75912;SDS011;64592;52.168;21.040;2023-05-08T20:40:26;8.57;;;4.45;;
75912;SDS011;64592;52.168;21.040;2023-05-08T20:45:30;9.50;;;4.63;;
75912;SDS011;64592;52.168;21.040;2023-05-08T20:50:33;8.32;;;5.20;;
75912;SDS011;64592;52.168;21.040;2023-05-08T20:55:36;8.65;;;4.90;;
75912;SDS011;64592;52.168;21.040;2023-05-08T21:00:38;8.07;;;5.53;;
75912;SDS011;64592;52.168;21.040;2023-05-08T21:05:47;11.25;;;4.78;;
75912;SDS011;64592;52.168;21.040;2023-05-08T21:10:50;6.68;;;4.50;;
75912;SDS011;64592;52.168;21.040;2023-05-08T21:15:52;8.52;;;4.85;;
75912;SDS011;64592;52.168;21.040;2023-05-08T21:20:56;7.82;;;4.32;;
75912;SDS011;64592;52.168;21.040;2023-05-08T21:25:58;7.97;;;5.03;;
75912;SDS011;64592;52.168;21.040;2023-05-08T21:31:00;11.07;;;4.28;;
75912;SDS011;64592;52.168;21.040;2023-05-08T21:36:07;7.28;;;4.75;;
75912;SDS011;64592;52.168;21.040;2023-05-08T21:41:12;6.70;;;4.22;;
75912;SDS011;64592;52.168;21.040;2023-05-08T21:46:14;9.35;;;4.70;;
75912;SDS011;64592;52.168;21.040;2023-05-08T21:51:18;7.70;;;5.07;;
75912;SDS011;64592;52.168;21.040;2023-05-08T21:56:24;6.95;;;4.15;;
75912;SDS011;64592;52.168;21.040;2023-05-08T22:01:26;8.77;;;4.70;;
75912;SDS011;64592;52.168;21.040;2023-05-08T22:06:29;6.53;;;4.30;;
75912;SDS011;64592;52.168;21.040;2023-05-08T22:11:30;11.48;;;5.15;;
75912;SDS011;64592;52.168;21.040;2023-05-08T22:16:33;7.38;;;5.03;;
75912;SDS011;64592;52.168;21.040;2023-05-08T22:21:38;7.82;;;5.00;;
75912;SDS011;64592;52.168;21.040;2023-05-08T22:26:40;5.97;;;4.25;;
75912;SDS011;64592;52.168;21.040;2023-05-08T22:31:42;8.50;;;5.90;;
75912;SDS011;64592;52.168;21.040;2023-05-08T22:36:46;12.75;;;5.20;;
75912;SDS011;64592;52.168;21.040;2023-05-08T22:41:48;7.72;;;5.15;;
75912;SDS011;64592;52.168;21.040;2023-05-08T22:46:51;8.27;;;5.45;;
75912;SDS011;64592;52.168;21.040;2023-05-08T22:51:56;9.00;;;5.75;;
75912;SDS011;64592;52.168;21.040;2023-05-08T22:56:59;10.57;;;5.70;;
75912;SDS011;64592;52.168;21.040;2023-05-08T23:02:02;8.48;;;5.63;;
75912;SDS011;64592;52.168;21.040;2023-05-08T23:07:05;12.05;;;6.72;;
75912;SDS011;64592;52.168;21.040;2023-05-08T23:12:06;14.60;;;7.22;;
75912;SDS011;64592;52.168;21.040;2023-05-08T23:17:08;13.95;;;7.53;;
75912;SDS011;64592;52.168;21.040;2023-05-08T23:22:14;9.52;;;6.65;;
75912;SDS011;64592;52.168;21.040;2023-05-08T23:27:16;11.98;;;6.82;;
75912;SDS011;64592;52.168;21.040;2023-05-08T23:32:18;11.23;;;6.28;;
75912;SDS011;64592;52.168;21.040;2023-05-08T23:37:24;10.10;;;6.80;;
75912;SDS011;64592;52.168;21.040;2023-05-08T23:42:25;12.75;;;7.70;;
75912;SDS011;64592;52.168;21.040;2023-05-08T23:47:27;12.40;;;7.70;;
75912;SDS011;64592;52.168;21.040;2023-05-08T23:52:30;10.30;;;6.75;;
75912;SDS011;64592;52.168;21.040;2023-05-08T23:57:32;11.52;;;7.25;;
